sensor_id;sensor_type;location;lat;lon;timestamp;P1;durP1;ratioP1;P2;durP2;ratioP2
15665;SDS011;20725;51.196;3.510;2022-09-09T07:04:14;7.80;;;2.90;;
15665;SDS011;20725;51.196;3.510;2022-09-09T07:06:42;9.77;;;3.03;;
15665;SDS011;20725;51.196;3.510;2022-09-09T07:09:11;9.33;;;2.47;;
15665;SDS011;20725;51.196;3.510;2022-09-09T07:11:40;8.03;;;2.03;;
15665;SDS011;20725;51.196;3.510;2022-09-09T07:14:09;8.53;;;2.60;;
15665;SDS011;20725;51.196;3.510;2022-09-09T07:16:39;8.17;;;3.27;;
15665;SDS011;20725;51.196;3.510;2022-09-09T07:19:06;12.10;;;2.50;;
15665;SDS011;20725;51.196;3.510;2022-09-09T07:24:20;8.53;;;2.70;;
15665;SDS011;20725;51.196;3.510;2022-09-09T07:26:47;14.07;;;3.40;;
15665;SDS011;20725;51.196;3.510;2022-09-09T07:29:14;9.17;;;2.77;;
15665;SDS011;20725;51.196;3.510;2022-09-09T07:31:41;6.83;;;2.87;;
15665;SDS011;20725;51.196;3.510;2022-09-09T07:34:08;8.33;;;2.80;;
15665;SDS011;20725;51.196;3.510;2022-09-09T07:36:35;14.23;;;2.90;;
15665;SDS011;20725;51.196;3.510;2022-09-09T07:39:06;9.57;;;2.90;;
15665;SDS011;20725;51.196;3.510;2022-09-09T07:41:35;9.57;;;3.23;;
15665;SDS011;20725;51.196;3.510;2022-09-09T07:44:04;5.10;;;2.30;;
15665;SDS011;20725;51.196;3.510;2022-09-09T07:46:36;7.73;;;2.30;;
15665;SDS011;20725;51.196;3.510;2022-09-09T07:49:09;4.83;;;1.90;;
15665;SDS011;20725;51.196;3.510;2022-09-09T07:51:37;6.70;;;2.50;;
15665;SDS011;20725;51.196;3.510;2022-09-09T07:54:07;7.07;;;2.57;;
15665;SDS011;20725;51.196;3.510;2022-09-09T07:56:36;7.57;;;2.43;;
15665;SDS011;20725;51.196;3.510;2022-09-09T07:59:04;9.20;;;2.57;;
15665;SDS011;20725;51.196;3.510;2022-09-09T08:01:32;9.60;;;3.10;;
15665;SDS011;20725;51.196;3.510;2022-09-09T08:04:02;8.83;;;2.43;;
15665;SDS011;20725;51.196;3.510;2022-09-09T08:06:32;9.10;;;2.83;;
15665;SDS011;20725;51.196;3.510;2022-09-09T08:09:01;9.37;;;2.93;;
15665;SDS011;20725;51.196;3.510;2022-09-09T08:11:30;13.20;;;2.53;;
15665;SDS011;20725;51.196;3.510;2022-09-09T08:13:58;8.33;;;2.33;;
15665;SDS011;20725;51.196;3.510;2022-09-09T08:16:25;4.50;;;2.33;;
15665;SDS011;20725;51.196;3.510;2022-09-09T08:18:55;5.43;;;1.73;;
15665;SDS011;20725;51.196;3.510;2022-09-09T08:21:22;6.30;;;2.57;;
15665;SDS011;20725;51.196;3.510;2022-09-09T08:23:52;7.53;;;2.83;;
15665;SDS011;20725;51.196;3.510;2022-09-09T08:26:20;6.43;;;2.43;;
15665;SDS011;20725;51.196;3.510;2022-09-09T08:28:50;7.37;;;2.57;;
15665;SDS011;20725;51.196;3.510;2022-09-09T08:31:19;5.23;;;3.00;;
15665;SDS011;20725;51.196;3.510;2022-09-09T08:33:47;13.00;;;2.80;;
15665;SDS011;20725;51.196;3.510;2022-09-09T08:36:15;7.77;;;2.70;;
15665;SDS011;20725;51.196;3.510;2022-09-09T08:38:43;5.47;;;2.33;;
15665;SDS011;20725;51.196;3.510;2022-09-09T08:41:17;7.47;;;2.83;;
15665;SDS011;20725;51.196;3.510;2022-09-09T08:44:02;5.87;;;2.73;;
15665;SDS011;20725;51.196;3.510;2022-09-09T08:46:34;4.57;;;2.17;;
15665;SDS011;20725;51.196;3.510;2022-09-09T08:49:13;5.17;;;2.30;;
15665;SDS011;20725;51.196;3.510;2022-09-09T08:51:55;6.80;;;2.57;;
15665;SDS011;20725;51.196;3.510;2022-09-09T08:54:26;5.33;;;2.20;;
15665;SDS011;20725;51.196;3.510;2022-09-09T08:57:02;6.37;;;2.53;;
15665;SDS011;20725;51.196;3.510;2022-09-09T08:59:32;3.97;;;2.00;;
15665;SDS011;20725;51.196;3.510;2022-09-09T09:02:00;6.23;;;2.33;;
15665;SDS011;20725;51.196;3.510;2022-09-09T09:04:43;6.30;;;2.83;;
15665;SDS011;20725;51.196;3.510;2022-09-09T09:07:35;3.27;;;1.90;;
15665;SDS011;20725;51.196;3.510;2022-09-09T09:10:12;7.27;;;2.33;;
15665;SDS011;20725;51.196;3.510;2022-09-09T09:12:51;8.70;;;2.50;;
15665;SDS011;20725;51.196;3.510;2022-09-09T09:15:24;5.53;;;2.40;;
15665;SDS011;20725;51.196;3.510;2022-09-09T09:18:02;9.47;;;2.60;;
15665;SDS011;20725;51.196;3.510;2022-09-09T09:20:42;6.87;;;2.57;;
15665;SDS011;20725;51.196;3.510;2022-09-09T09:23:31;4.30;;;2.33;;
15665;SDS011;20725;51.196;3.510;2022-09-09T09:26:05;5.53;;;2.53;;
15665;SDS011;20725;51.196;3.510;2022-09-09T09:28:38;4.53;;;2.13;;
15665;SDS011;20725;51.196;3.510;2022-09-09T09:31:11;2.50;;;1.80;;
15665;SDS011;20725;51.196;3.510;2022-09-09T09:33:42;4.57;;;2.03;;
15665;SDS011;20725;51.196;3.510;2022-09-09T09:36:13;5.90;;;2.40;;
15665;SDS011;20725;51.196;3.510;2022-09-09T09:38:51;4.87;;;2.43;;
15665;SDS011;20725;51.196;3.510;2022-09-09T09:41:30;6.07;;;2.10;;
15665;SDS011;20725;51.196;3.510;2022-09-09T09:44:00;3.43;;;1.77;;
15665;SDS011;20725;51.196;3.510;2022-09-09T09:46:35;2.40;;;1.87;;
15665;SDS011;20725;51.196;3.510;2022-09-09T09:49:03;5.33;;;2.00;;
15665;SDS011;20725;51.196;3.510;2022-09-09T09:51:31;6.33;;;2.10;;
15665;SDS011;20725;51.196;3.510;2022-09-09T09:54:07;3.03;;;1.93;;
15665;SDS011;20725;51.196;3.510;2022-09-09T09:56:41;3.10;;;1.80;;
15665;SDS011;20725;51.196;3.510;2022-09-09T09:59:19;6.27;;;2.30;;
15665;SDS011;20725;51.196;3.510;2022-09-09T10:01:52;3.07;;;1.50;;
15665;SDS011;20725;51.196;3.510;2022-09-09T10:04:20;2.87;;;1.80;;
15665;SDS011;20725;51.196;3.510;2022-09-09T10:06:51;3.97;;;1.77;;
15665;SDS011;20725;51.196;3.510;2022-09-09T10:09:24;3.47;;;1.70;;
15665;SDS011;20725;51.196;3.510;2022-09-09T10:12:01;3.43;;;1.40;;
15665;SDS011;20725;51.196;3.510;2022-09-09T10:14:38;7.13;;;1.90;;
15665;SDS011;20725;51.196;3.510;2022-09-09T10:17:18;3.47;;;1.63;;
15665;SDS011;20725;51.196;3.510;2022-09-09T10:19:55;2.70;;;1.43;;
15665;SDS011;20725;51.196;3.510;2022-09-09T10:22:34;3.30;;;1.43;;
15665;SDS011;20725;51.196;3.510;2022-09-09T10:25:11;4.10;;;1.80;;
15665;SDS011;20725;51.196;3.510;2022-09-09T10:28:06;3.83;;;1.60;;
15665;SDS011;20725;51.196;3.510;2022-09-09T10:30:53;3.13;;;1.70;;
15665;SDS011;20725;51.196;3.510;2022-09-09T10:33:32;2.93;;;1.30;;
15665;SDS011;20725;51.196;3.510;2022-09-09T10:36:07;3.03;;;1.70;;
15665;SDS011;20725;51.196;3.510;2022-09-09T10:38:47;4.07;;;1.60;;
15665;SDS011;20725;51.196;3.510;2022-09-09T10:41:21;4.20;;;1.23;;
15665;SDS011;20725;51.196;3.510;2022-09-09T10:44:20;5.87;;;1.57;;
15665;SDS011;20725;51.196;3.510;2022-09-09T10:50:01;7.43;;;1.80;;
15665;SDS011;20725;51.196;3.510;2022-09-09T10:52:52;2.93;;;1.00;;
15665;SDS011;20725;51.196;3.510;2022-09-09T10:55:28;3.27;;;1.40;;
15665;SDS011;20725;51.196;3.510;2022-09-09T10:58:24;8.83;;;1.90;;
15665;SDS011;20725;51.196;3.510;2022-09-09T11:01:09;5.00;;;1.50;;
15665;SDS011;20725;51.196;3.510;2022-09-09T11:03:57;2.57;;;1.77;;
15665;SDS011;20725;51.196;3.510;2022-09-09T11:06:39;3.03;;;2.27;;
15665;SDS011;20725;51.196;3.510;2022-09-09T11:09:14;5.00;;;2.30;;
15665;SDS011;20725;51.196;3.510;2022-09-09T11:11:45;3.37;;;2.10;;
15665;SDS011;20725;51.196;3.510;2022-09-09T11:14:20;4.90;;;2.60;;
15665;SDS011;20725;51.196;3.510;2022-09-09T11:16:59;6.23;;;2.27;;
15665;SDS011;20725;51.196;3.510;2022-09-09T11:19:40;3.53;;;2.20;;
15665;SDS011;20725;51.196;3.510;2022-09-09T11:22:16;5.33;;;2.40;;
15665;SDS011;20725;51.196;3.510;2022-09-09T11:24:55;6.27;;;2.47;;
15665;SDS011;20725;51.196;3.510;2022-09-09T11:27:27;5.07;;;2.30;;
15665;SDS011;20725;51.196;3.510;2022-09-09T11:30:05;6.37;;;1.90;;
15665;SDS011;20725;51.196;3.510;2022-09-09T11:36:04;7.53;;;2.20;;
15665;SDS011;20725;51.196;3.510;2022-09-09T11:38:56;2.20;;;2.00;;
15665;SDS011;20725;51.196;3.510;2022-09-09T11:41:34;4.40;;;2.17;;
15665;SDS011;20725;51.196;3.510;2022-09-09T11:47:26;7.60;;;2.83;;
15665;SDS011;20725;51.196;3.510;2022-09-09T11:53:22;4.67;;;2.80;;
15665;SDS011;20725;51.196;3.510;2022-09-09T11:56:41;13.60;;;3.50;;
15665;SDS011;20725;51.196;3.510;2022-09-09T11:59:19;9.77;;;3.90;;
15665;SDS011;20725;51.196;3.510;2022-09-09T12:01:50;3.90;;;3.17;;
15665;SDS011;20725;51.196;3.510;2022-09-09T12:07:23;6.57;;;3.47;;
15665;SDS011;20725;51.196;3.510;2022-09-09T12:09:56;9.87;;;4.20;;
15665;SDS011;20725;51.196;3.510;2022-09-09T12:12:32;9.60;;;4.70;;
15665;SDS011;20725;51.196;3.510;2022-09-09T12:15:03;13.73;;;5.67;;
15665;SDS011;20725;51.196;3.510;2022-09-09T12:17:57;3.13;;;1.83;;
15665;SDS011;20725;51.196;3.510;2022-09-09T12:20:39;4.37;;;1.70;;
15665;SDS011;20725;51.196;3.510;2022-09-09T12:23:23;3.93;;;1.10;;
15665;SDS011;20725;51.196;3.510;2022-09-09T12:26:05;2.07;;;1.10;;
15665;SDS011;20725;51.196;3.510;2022-09-09T12:28:52;2.23;;;1.10;;
15665;SDS011;20725;51.196;3.510;2022-09-09T12:31:39;1.33;;;1.20;;
15665;SDS011;20725;51.196;3.510;2022-09-09T12:34:14;2.50;;;1.00;;
15665;SDS011;20725;51.196;3.510;2022-09-09T12:36:54;3.67;;;1.00;;
15665;SDS011;20725;51.196;3.510;2022-09-09T12:39:29;2.60;;;1.10;;
15665;SDS011;20725;51.196;3.510;2022-09-09T12:42:00;1.73;;;1.30;;
15665;SDS011;20725;51.196;3.510;2022-09-09T12:44:31;5.97;;;1.20;;
15665;SDS011;20725;51.196;3.510;2022-09-09T12:47:00;2.17;;;1.63;;
15665;SDS011;20725;51.196;3.510;2022-09-09T12:49:30;4.73;;;2.30;;
15665;SDS011;20725;51.196;3.510;2022-09-09T12:52:06;2.87;;;2.27;;
15665;SDS011;20725;51.196;3.510;2022-09-09T12:54:43;5.70;;;2.50;;
15665;SDS011;20725;51.196;3.510;2022-09-09T12:57:17;4.77;;;2.93;;
15665;SDS011;20725;51.196;3.510;2022-09-09T12:59:46;4.07;;;3.27;;
15665;SDS011;20725;51.196;3.510;2022-09-09T13:02:21;4.57;;;3.43;;
15665;SDS011;20725;51.196;3.510;2022-09-09T13:04:50;4.07;;;3.30;;
15665;SDS011;20725;51.196;3.510;2022-09-09T13:07:19;6.37;;;2.80;;
15665;SDS011;20725;51.196;3.510;2022-09-09T13:09:49;4.73;;;2.80;;
15665;SDS011;20725;51.196;3.510;2022-09-09T13:12:18;6.77;;;3.10;;
15665;SDS011;20725;51.196;3.510;2022-09-09T13:14:50;15.23;;;3.10;;
15665;SDS011;20725;51.196;3.510;2022-09-09T13:17:21;6.50;;;2.97;;
15665;SDS011;20725;51.196;3.510;2022-09-09T13:19:54;5.17;;;2.63;;
15665;SDS011;20725;51.196;3.510;2022-09-09T13:22:26;4.67;;;3.03;;
15665;SDS011;20725;51.196;3.510;2022-09-09T13:25:02;5.43;;;2.97;;
15665;SDS011;20725;51.196;3.510;2022-09-09T13:27:33;5.87;;;3.50;;
15665;SDS011;20725;51.196;3.510;2022-09-09T13:33:03;10.37;;;4.17;;
15665;SDS011;20725;51.196;3.510;2022-09-09T13:35:45;4.33;;;3.20;;
15665;SDS011;20725;51.196;3.510;2022-09-09T13:38:16;5.87;;;3.87;;
15665;SDS011;20725;51.196;3.510;2022-09-09T13:40:54;6.43;;;3.70;;
15665;SDS011;20725;51.196;3.510;2022-09-09T13:43:24;6.77;;;3.10;;
15665;SDS011;20725;51.196;3.510;2022-09-09T13:49:00;3.77;;;2.90;;
15665;SDS011;20725;51.196;3.510;2022-09-09T13:51:36;4.27;;;3.00;;
15665;SDS011;20725;51.196;3.510;2022-09-09T13:54:15;5.10;;;3.00;;
15665;SDS011;20725;51.196;3.510;2022-09-09T13:56:48;4.83;;;2.90;;
15665;SDS011;20725;51.196;3.510;2022-09-09T13:59:33;4.27;;;2.10;;
15665;SDS011;20725;51.196;3.510;2022-09-09T14:02:54;4.03;;;1.80;;
15665;SDS011;20725;51.196;3.510;2022-09-09T14:09:47;3.27;;;1.60;;
15665;SDS011;20725;51.196;3.510;2022-09-09T14:12:57;4.17;;;2.63;;
15665;SDS011;20725;51.196;3.510;2022-09-09T14:15:34;3.27;;;2.30;;
15665;SDS011;20725;51.196;3.510;2022-09-09T14:18:04;4.87;;;2.70;;
15665;SDS011;20725;51.196;3.510;2022-09-09T14:20:39;7.77;;;4.00;;
15665;SDS011;20725;51.196;3.510;2022-09-09T14:23:10;13.30;;;4.90;;
15665;SDS011;20725;51.196;3.510;2022-09-09T14:25:43;7.03;;;4.60;;
15665;SDS011;20725;51.196;3.510;2022-09-09T14:28:12;8.87;;;4.80;;
15665;SDS011;20725;51.196;3.510;2022-09-09T14:30:42;6.90;;;5.13;;
15665;SDS011;20725;51.196;3.510;2022-09-09T14:33:12;10.67;;;4.80;;
15665;SDS011;20725;51.196;3.510;2022-09-09T14:35:47;47.73;;;9.07;;
15665;SDS011;20725;51.196;3.510;2022-09-09T14:38:22;5.93;;;3.03;;
15665;SDS011;20725;51.196;3.510;2022-09-09T14:41:00;4.83;;;2.67;;
15665;SDS011;20725;51.196;3.510;2022-09-09T14:43:28;6.93;;;2.60;;
15665;SDS011;20725;51.196;3.510;2022-09-09T14:45:57;8.43;;;3.20;;
15665;SDS011;20725;51.196;3.510;2022-09-09T14:48:31;4.47;;;2.77;;
15665;SDS011;20725;51.196;3.510;2022-09-09T14:51:04;3.07;;;2.33;;
15665;SDS011;20725;51.196;3.510;2022-09-09T14:53:33;2.53;;;1.23;;
15665;SDS011;20725;51.196;3.510;2022-09-09T14:56:09;3.83;;;1.37;;
15665;SDS011;20725;51.196;3.510;2022-09-09T14:58:37;6.63;;;1.50;;
15665;SDS011;20725;51.196;3.510;2022-09-09T15:01:08;3.70;;;1.47;;
15665;SDS011;20725;51.196;3.510;2022-09-09T15:03:40;3.40;;;1.60;;
15665;SDS011;20725;51.196;3.510;2022-09-09T15:06:08;4.77;;;2.00;;
15665;SDS011;20725;51.196;3.510;2022-09-09T15:08:37;2.97;;;1.63;;
15665;SDS011;20725;51.196;3.510;2022-09-09T15:11:05;3.57;;;1.70;;
15665;SDS011;20725;51.196;3.510;2022-09-09T15:13:35;6.80;;;2.10;;
15665;SDS011;20725;51.196;3.510;2022-09-09T15:16:03;5.83;;;1.90;;
15665;SDS011;20725;51.196;3.510;2022-09-09T15:18:31;3.87;;;1.70;;
15665;SDS011;20725;51.196;3.510;2022-09-09T15:20:59;5.33;;;1.70;;
15665;SDS011;20725;51.196;3.510;2022-09-09T15:23:28;4.63;;;1.83;;
15665;SDS011;20725;51.196;3.510;2022-09-09T15:25:57;3.10;;;1.60;;
15665;SDS011;20725;51.196;3.510;2022-09-09T15:28:25;3.53;;;1.70;;
15665;SDS011;20725;51.196;3.510;2022-09-09T15:30:53;4.07;;;1.97;;
15665;SDS011;20725;51.196;3.510;2022-09-09T15:33:21;3.03;;;1.60;;
15665;SDS011;20725;51.196;3.510;2022-09-09T15:35:49;5.17;;;2.13;;
15665;SDS011;20725;51.196;3.510;2022-09-09T15:38:16;2.53;;;2.00;;
15665;SDS011;20725;51.196;3.510;2022-09-09T15:40:44;6.03;;;2.10;;
15665;SDS011;20725;51.196;3.510;2022-09-09T15:43:14;5.20;;;2.53;;
15665;SDS011;20725;51.196;3.510;2022-09-09T15:45:43;3.10;;;2.37;;
15665;SDS011;20725;51.196;3.510;2022-09-09T15:48:12;6.23;;;2.27;;
15665;SDS011;20725;51.196;3.510;2022-09-09T15:50:39;3.73;;;2.43;;
15665;SDS011;20725;51.196;3.510;2022-09-09T15:53:06;4.63;;;2.63;;
15665;SDS011;20725;51.196;3.510;2022-09-09T15:55:33;7.60;;;2.87;;
15665;SDS011;20725;51.196;3.510;2022-09-09T15:58:02;5.70;;;2.80;;
15665;SDS011;20725;51.196;3.510;2022-09-09T16:00:29;10.20;;;3.47;;
15665;SDS011;20725;51.196;3.510;2022-09-09T16:02:58;11.87;;;3.90;;
15665;SDS011;20725;51.196;3.510;2022-09-09T16:05:28;10.30;;;3.13;;
15665;SDS011;20725;51.196;3.510;2022-09-09T16:07:55;9.43;;;4.67;;
15665;SDS011;20725;51.196;3.510;2022-09-09T16:10:22;11.17;;;4.57;;
15665;SDS011;20725;51.196;3.510;2022-09-09T16:12:49;8.07;;;4.93;;
15665;SDS011;20725;51.196;3.510;2022-09-09T16:15:16;6.07;;;4.07;;
15665;SDS011;20725;51.196;3.510;2022-09-09T16:17:47;5.67;;;4.10;;
15665;SDS011;20725;51.196;3.510;2022-09-09T16:20:16;5.47;;;4.30;;
15665;SDS011;20725;51.196;3.510;2022-09-09T16:22:44;7.90;;;4.30;;
15665;SDS011;20725;51.196;3.510;2022-09-09T16:25:11;4.63;;;2.90;;
15665;SDS011;20725;51.196;3.510;2022-09-09T16:27:39;3.87;;;2.80;;
15665;SDS011;20725;51.196;3.510;2022-09-09T16:30:07;5.30;;;2.53;;
15665;SDS011;20725;51.196;3.510;2022-09-09T16:32:35;3.60;;;2.33;;
15665;SDS011;20725;51.196;3.510;2022-09-09T16:35:03;3.43;;;2.40;;
15665;SDS011;20725;51.196;3.510;2022-09-09T16:37:34;3.13;;;2.40;;
15665;SDS011;20725;51.196;3.510;2022-09-09T16:40:01;3.17;;;2.67;;
15665;SDS011;20725;51.196;3.510;2022-09-09T16:42:30;3.80;;;2.63;;
15665;SDS011;20725;51.196;3.510;2022-09-09T16:44:57;5.50;;;3.00;;
15665;SDS011;20725;51.196;3.510;2022-09-09T16:47:26;4.00;;;2.77;;
15665;SDS011;20725;51.196;3.510;2022-09-09T16:49:54;3.90;;;3.47;;
15665;SDS011;20725;51.196;3.510;2022-09-09T16:52:24;3.53;;;2.67;;
15665;SDS011;20725;51.196;3.510;2022-09-09T16:54:53;3.80;;;3.00;;
15665;SDS011;20725;51.196;3.510;2022-09-09T16:57:19;3.33;;;3.03;;
15665;SDS011;20725;51.196;3.510;2022-09-09T16:59:49;3.73;;;3.13;;
15665;SDS011;20725;51.196;3.510;2022-09-09T17:02:19;3.47;;;3.17;;
15665;SDS011;20725;51.196;3.510;2022-09-09T17:04:46;4.47;;;3.60;;
15665;SDS011;20725;51.196;3.510;2022-09-09T17:07:13;4.63;;;3.43;;
15665;SDS011;20725;51.196;3.510;2022-09-09T17:09:40;5.20;;;3.50;;
15665;SDS011;20725;51.196;3.510;2022-09-09T17:12:10;6.20;;;3.50;;
15665;SDS011;20725;51.196;3.510;2022-09-09T17:14:38;7.87;;;5.00;;
15665;SDS011;20725;51.196;3.510;2022-09-09T17:17:05;9.33;;;4.60;;
15665;SDS011;20725;51.196;3.510;2022-09-09T17:19:34;7.97;;;5.03;;
15665;SDS011;20725;51.196;3.510;2022-09-09T17:22:24;9.17;;;4.90;;
15665;SDS011;20725;51.196;3.510;2022-09-09T17:24:54;8.47;;;4.50;;
15665;SDS011;20725;51.196;3.510;2022-09-09T17:27:30;6.73;;;4.37;;
15665;SDS011;20725;51.196;3.510;2022-09-09T17:29:58;7.73;;;4.10;;
15665;SDS011;20725;51.196;3.510;2022-09-09T17:32:25;10.20;;;4.37;;
15665;SDS011;20725;51.196;3.510;2022-09-09T17:34:53;7.30;;;4.13;;
15665;SDS011;20725;51.196;3.510;2022-09-09T17:37:20;6.53;;;3.67;;
15665;SDS011;20725;51.196;3.510;2022-09-09T17:39:47;5.63;;;3.07;;
15665;SDS011;20725;51.196;3.510;2022-09-09T17:42:14;6.10;;;3.10;;
15665;SDS011;20725;51.196;3.510;2022-09-09T17:44:45;6.67;;;2.90;;
15665;SDS011;20725;51.196;3.510;2022-09-09T17:47:12;7.53;;;2.97;;
15665;SDS011;20725;51.196;3.510;2022-09-09T17:49:39;6.20;;;2.43;;
15665;SDS011;20725;51.196;3.510;2022-09-09T17:52:06;12.60;;;2.70;;
15665;SDS011;20725;51.196;3.510;2022-09-09T17:54:33;4.23;;;2.30;;
15665;SDS011;20725;51.196;3.510;2022-09-09T17:57:00;4.40;;;2.77;;
15665;SDS011;20725;51.196;3.510;2022-09-09T18:02:48;6.10;;;2.70;;
15665;SDS011;20725;51.196;3.510;2022-09-09T18:05:15;8.47;;;2.30;;
15665;SDS011;20725;51.196;3.510;2022-09-09T18:07:55;7.20;;;2.50;;
15665;SDS011;20725;51.196;3.510;2022-09-09T18:10:22;5.63;;;2.47;;
15665;SDS011;20725;51.196;3.510;2022-09-09T18:12:49;7.27;;;2.47;;
15665;SDS011;20725;51.196;3.510;2022-09-09T18:15:18;6.40;;;2.60;;
15665;SDS011;20725;51.196;3.510;2022-09-09T18:17:46;6.17;;;2.73;;
15665;SDS011;20725;51.196;3.510;2022-09-09T18:20:13;5.73;;;2.40;;
15665;SDS011;20725;51.196;3.510;2022-09-09T18:22:41;8.20;;;2.40;;
15665;SDS011;20725;51.196;3.510;2022-09-09T18:25:08;6.10;;;2.70;;
15665;SDS011;20725;51.196;3.510;2022-09-09T18:27:35;9.53;;;3.37;;
15665;SDS011;20725;51.196;3.510;2022-09-09T18:30:02;7.47;;;2.83;;
15665;SDS011;20725;51.196;3.510;2022-09-09T18:32:40;7.97;;;2.83;;
15665;SDS011;20725;51.196;3.510;2022-09-09T18:35:17;6.83;;;3.00;;
15665;SDS011;20725;51.196;3.510;2022-09-09T18:37:48;7.40;;;3.00;;
15665;SDS011;20725;51.196;3.510;2022-09-09T18:40:31;9.70;;;3.10;;
15665;SDS011;20725;51.196;3.510;2022-09-09T18:43:03;7.93;;;3.40;;
15665;SDS011;20725;51.196;3.510;2022-09-09T18:45:44;11.30;;;3.30;;
15665;SDS011;20725;51.196;3.510;2022-09-09T18:48:14;9.43;;;2.87;;
15665;SDS011;20725;51.196;3.510;2022-09-09T18:50:45;8.17;;;2.83;;
15665;SDS011;20725;51.196;3.510;2022-09-09T18:53:15;8.47;;;3.50;;
15665;SDS011;20725;51.196;3.510;2022-09-09T18:55:45;9.50;;;3.30;;
15665;SDS011;20725;51.196;3.510;2022-09-09T18:58:24;10.20;;;3.30;;
15665;SDS011;20725;51.196;3.510;2022-09-09T19:01:03;10.90;;;3.00;;
15665;SDS011;20725;51.196;3.510;2022-09-09T19:03:38;7.90;;;3.20;;
15665;SDS011;20725;51.196;3.510;2022-09-09T19:06:10;7.67;;;3.20;;
15665;SDS011;20725;51.196;3.510;2022-09-09T19:08:44;10.13;;;3.00;;
15665;SDS011;20725;51.196;3.510;2022-09-09T19:11:15;10.33;;;3.23;;
15665;SDS011;20725;51.196;3.510;2022-09-09T19:13:49;5.07;;;3.03;;
15665;SDS011;20725;51.196;3.510;2022-09-09T19:16:18;13.93;;;3.43;;
15665;SDS011;20725;51.196;3.510;2022-09-09T19:18:53;9.43;;;2.80;;
15665;SDS011;20725;51.196;3.510;2022-09-09T19:21:24;8.33;;;2.90;;
15665;SDS011;20725;51.196;3.510;2022-09-09T19:23:56;8.43;;;2.57;;
15665;SDS011;20725;51.196;3.510;2022-09-09T19:26:27;16.13;;;2.67;;
15665;SDS011;20725;51.196;3.510;2022-09-09T19:28:57;11.03;;;3.30;;
15665;SDS011;20725;51.196;3.510;2022-09-09T19:31:29;12.83;;;3.13;;
15665;SDS011;20725;51.196;3.510;2022-09-09T19:33:59;12.20;;;2.57;;
15665;SDS011;20725;51.196;3.510;2022-09-09T19:36:28;10.27;;;2.93;;
15665;SDS011;20725;51.196;3.510;2022-09-09T19:38:58;8.03;;;2.90;;
15665;SDS011;20725;51.196;3.510;2022-09-09T19:41:28;6.07;;;2.50;;
15665;SDS011;20725;51.196;3.510;2022-09-09T19:43:57;11.93;;;2.90;;
15665;SDS011;20725;51.196;3.510;2022-09-09T19:46:27;10.53;;;2.87;;
15665;SDS011;20725;51.196;3.510;2022-09-09T19:48:55;12.67;;;3.30;;
15665;SDS011;20725;51.196;3.510;2022-09-09T19:51:26;6.30;;;2.30;;
15665;SDS011;20725;51.196;3.510;2022-09-09T19:53:59;14.83;;;2.90;;
15665;SDS011;20725;51.196;3.510;2022-09-09T19:56:28;14.77;;;2.90;;
15665;SDS011;20725;51.196;3.510;2022-09-09T19:59:02;7.33;;;2.20;;
15665;SDS011;20725;51.196;3.510;2022-09-09T20:01:33;9.67;;;2.43;;
15665;SDS011;20725;51.196;3.510;2022-09-09T20:04:04;4.30;;;2.50;;
15665;SDS011;20725;51.196;3.510;2022-09-09T20:06:33;9.00;;;2.40;;
15665;SDS011;20725;51.196;3.510;2022-09-09T20:09:03;6.47;;;2.50;;
15665;SDS011;20725;51.196;3.510;2022-09-09T20:11:31;6.80;;;2.50;;
15665;SDS011;20725;51.196;3.510;2022-09-09T20:14:06;12.33;;;3.00;;
15665;SDS011;20725;51.196;3.510;2022-09-09T20:16:36;8.63;;;2.80;;
15665;SDS011;20725;51.196;3.510;2022-09-09T20:19:09;11.40;;;2.93;;
15665;SDS011;20725;51.196;3.510;2022-09-09T20:21:42;11.30;;;3.00;;
15665;SDS011;20725;51.196;3.510;2022-09-09T20:24:16;10.37;;;3.00;;
15665;SDS011;20725;51.196;3.510;2022-09-09T20:26:47;9.57;;;2.80;;
15665;SDS011;20725;51.196;3.510;2022-09-09T20:29:15;14.53;;;2.80;;
15665;SDS011;20725;51.196;3.510;2022-09-09T20:31:43;12.73;;;3.30;;
15665;SDS011;20725;51.196;3.510;2022-09-09T20:34:13;10.83;;;2.93;;
15665;SDS011;20725;51.196;3.510;2022-09-09T20:36:42;11.50;;;3.10;;
15665;SDS011;20725;51.196;3.510;2022-09-09T20:39:10;10.40;;;3.80;;
15665;SDS011;20725;51.196;3.510;2022-09-09T20:41:39;18.10;;;3.80;;
15665;SDS011;20725;51.196;3.510;2022-09-09T20:44:08;18.40;;;3.90;;
15665;SDS011;20725;51.196;3.510;2022-09-09T20:46:39;9.97;;;3.93;;
15665;SDS011;20725;51.196;3.510;2022-09-09T20:49:08;13.83;;;3.47;;
15665;SDS011;20725;51.196;3.510;2022-09-09T20:51:37;12.83;;;3.10;;
15665;SDS011;20725;51.196;3.510;2022-09-09T20:54:05;17.43;;;3.83;;
15665;SDS011;20725;51.196;3.510;2022-09-09T20:56:35;9.17;;;3.20;;
15665;SDS011;20725;51.196;3.510;2022-09-09T20:59:12;14.73;;;3.87;;
15665;SDS011;20725;51.196;3.510;2022-09-09T21:01:40;12.97;;;3.60;;
15665;SDS011;20725;51.196;3.510;2022-09-09T21:04:08;11.77;;;3.50;;
15665;SDS011;20725;51.196;3.510;2022-09-09T21:06:35;8.53;;;3.77;;
15665;SDS011;20725;51.196;3.510;2022-09-09T21:09:04;12.13;;;3.80;;
15665;SDS011;20725;51.196;3.510;2022-09-09T21:11:32;9.00;;;3.87;;
15665;SDS011;20725;51.196;3.510;2022-09-09T21:13:59;16.03;;;4.57;;
15665;SDS011;20725;51.196;3.510;2022-09-09T21:16:26;6.43;;;3.97;;
15665;SDS011;20725;51.196;3.510;2022-09-09T21:18:53;18.23;;;5.00;;
15665;SDS011;20725;51.196;3.510;2022-09-09T21:21:20;12.40;;;4.33;;
15665;SDS011;20725;51.196;3.510;2022-09-09T21:23:47;11.73;;;4.60;;
15665;SDS011;20725;51.196;3.510;2022-09-09T21:26:16;9.13;;;3.80;;
15665;SDS011;20725;51.196;3.510;2022-09-09T21:28:44;14.10;;;4.47;;
15665;SDS011;20725;51.196;3.510;2022-09-09T21:31:17;20.50;;;5.20;;
15665;SDS011;20725;51.196;3.510;2022-09-09T21:33:44;14.23;;;4.93;;
15665;SDS011;20725;51.196;3.510;2022-09-09T21:36:12;15.40;;;4.93;;
15665;SDS011;20725;51.196;3.510;2022-09-09T21:38:40;13.63;;;4.87;;
15665;SDS011;20725;51.196;3.510;2022-09-09T21:41:08;14.80;;;4.90;;
15665;SDS011;20725;51.196;3.510;2022-09-09T21:43:39;11.93;;;4.70;;
15665;SDS011;20725;51.196;3.510;2022-09-09T21:46:07;18.17;;;5.83;;
15665;SDS011;20725;51.196;3.510;2022-09-09T21:48:35;15.43;;;4.90;;
15665;SDS011;20725;51.196;3.510;2022-09-09T21:51:03;17.73;;;5.43;;
15665;SDS011;20725;51.196;3.510;2022-09-09T21:53:32;9.73;;;4.93;;
15665;SDS011;20725;51.196;3.510;2022-09-09T21:55:59;15.53;;;5.33;;
15665;SDS011;20725;51.196;3.510;2022-09-09T21:58:27;16.10;;;5.40;;
15665;SDS011;20725;51.196;3.510;2022-09-09T22:00:55;13.93;;;5.57;;
15665;SDS011;20725;51.196;3.510;2022-09-09T22:03:22;11.40;;;4.83;;
15665;SDS011;20725;51.196;3.510;2022-09-09T22:05:50;12.53;;;5.47;;
15665;SDS011;20725;51.196;3.510;2022-09-09T22:08:17;10.77;;;5.73;;
15665;SDS011;20725;51.196;3.510;2022-09-09T22:10:45;17.63;;;5.40;;
15665;SDS011;20725;51.196;3.510;2022-09-09T22:13:13;13.80;;;5.23;;
15665;SDS011;20725;51.196;3.510;2022-09-09T22:15:41;13.67;;;5.07;;
15665;SDS011;20725;51.196;3.510;2022-09-09T22:18:10;13.50;;;5.20;;
15665;SDS011;20725;51.196;3.510;2022-09-09T22:20:40;11.30;;;6.20;;
15665;SDS011;20725;51.196;3.510;2022-09-09T22:23:08;11.80;;;5.40;;
15665;SDS011;20725;51.196;3.510;2022-09-09T22:25:35;13.73;;;5.33;;
15665;SDS011;20725;51.196;3.510;2022-09-09T22:28:04;12.07;;;6.13;;
15665;SDS011;20725;51.196;3.510;2022-09-09T22:30:31;11.03;;;5.23;;
15665;SDS011;20725;51.196;3.510;2022-09-09T22:32:58;11.30;;;5.77;;
15665;SDS011;20725;51.196;3.510;2022-09-09T22:35:28;15.20;;;6.00;;
15665;SDS011;20725;51.196;3.510;2022-09-09T22:37:55;10.27;;;5.80;;
15665;SDS011;20725;51.196;3.510;2022-09-09T22:40:24;15.00;;;5.80;;
15665;SDS011;20725;51.196;3.510;2022-09-09T22:42:51;12.27;;;5.27;;
15665;SDS011;20725;51.196;3.510;2022-09-09T22:45:18;14.60;;;5.77;;
15665;SDS011;20725;51.196;3.510;2022-09-09T22:47:46;14.43;;;5.43;;
15665;SDS011;20725;51.196;3.510;2022-09-09T22:50:13;8.13;;;4.87;;